Briefing drone pour Bourg-de-peage

Rechercher une autre localisation

Conditions de vol :


Nous sommes le : Mardi 01 décembre 2020
Il est 11:24 UTC (12:25 LT)

Lever de soleil : 06:32 UTC (07:32 LT)
Coucher de soleil : 16:25 UTC (17:25 LT)

Météo

L'essentiel des conditions de vol

VIGILANCE MÉTÉO FRANCE - Drôme (26)
Pas de vigilances particulieres
CARTES DES FRONTS
METAR de LFLU
LFLU 011100Z AUTO 35010KT 5000 BR FEW029 OVC038 04/03 Q1018

Date d'émission: 01/12/2020
Heure d'émission: 11:00 UTC
Vent: 350° pour 10 KT (19 km/h)
Visibilité horizontale: 5000 m
Plafond :
- Peu de nuages à 2900ft (884m)
- Couvert à 3800ft (1158m)
Température: 4 °C
Point de rosée: 3 °C
Humidité: 93%
Pression (QNH): 1018 hPa
Conditions: Brume
Prévision 24h pour Valence (10 km)
Vent : 29° pour 4 KT (16 km/h)
Temperature Maxi: 2 °C
Temperature Min: 2 °C
Humidité : 88%
Condition : Couvert



Warning: count(): Parameter must be an array or an object that implements Countable in /homepages/6/d509196549/htdocs/droneoxygene/briefing.php on line 743
WEBCAM POUR BOURG-DE-PEAGE

Réglementation

Voler en sécurité

CARTES AERONAUTIQUE 1/500.000
CARTES VAC (LFLU)
SUP AIP




Chargement des AIP...
NOTAM (BOURG-DE-PEAGE + Terrain à proximité / FIR )




Chargement des NOTAMS...
CONTACT PREFECTURE 26
Drôme (26) : ddt-sdsr@drome.gouv.fr


Avertissement : Les données mises à disposition sont indicatives. Oxygène Drone ne pourra être tenu responsable de dégâts causés aux biens et aux personnes.